sensor_id;sensor_type;location;lat;lon;timestamp;P1;durP1;ratioP1;P2;durP2;ratioP2
3677;SDS011;1855;50.934;6.958;2022-09-01T00:00:04;2.30;;;2.10;;
3677;SDS011;1855;50.934;6.958;2022-09-01T00:02:36;2.20;;;2.00;;
3677;SDS011;1855;50.934;6.958;2022-09-01T00:05:03;1.98;;;1.88;;
3677;SDS011;1855;50.934;6.958;2022-09-01T00:07:32;2.70;;;2.20;;
3677;SDS011;1855;50.934;6.958;2022-09-01T00:09:59;2.50;;;2.20;;
3677;SDS011;1855;50.934;6.958;2022-09-01T00:12:27;2.35;;;2.10;;
3677;SDS011;1855;50.934;6.958;2022-09-01T00:14:54;2.13;;;1.98;;
3677;SDS011;1855;50.934;6.958;2022-09-01T00:17:22;2.47;;;2.28;;
3677;SDS011;1855;50.934;6.958;2022-09-01T00:19:51;2.60;;;2.40;;
3677;SDS011;1855;50.934;6.958;2022-09-01T00:22:18;2.53;;;2.38;;
3677;SDS011;1855;50.934;6.958;2022-09-01T00:24:45;4.38;;;2.47;;
3677;SDS011;1855;50.934;6.958;2022-09-01T00:27:12;2.47;;;2.28;;
3677;SDS011;1855;50.934;6.958;2022-09-01T00:29:39;2.50;;;2.30;;
3677;SDS011;1855;50.934;6.958;2022-09-01T00:32:05;2.45;;;2.25;;
3677;SDS011;1855;50.934;6.958;2022-09-01T00:34:32;2.30;;;2.20;;
3677;SDS011;1855;50.934;6.958;2022-09-01T00:37:01;2.28;;;2.08;;
3677;SDS011;1855;50.934;6.958;2022-09-01T00:39:27;3.30;;;2.10;;
3677;SDS011;1855;50.934;6.958;2022-09-01T00:41:54;2.60;;;2.20;;
3677;SDS011;1855;50.934;6.958;2022-09-01T00:44:23;2.80;;;2.20;;
3677;SDS011;1855;50.934;6.958;2022-09-01T00:46:52;2.40;;;2.20;;
3677;SDS011;1855;50.934;6.958;2022-09-01T00:49:25;2.60;;;2.40;;
3677;SDS011;1855;50.934;6.958;2022-09-01T00:51:56;2.67;;;2.30;;
3677;SDS011;1855;50.934;6.958;2022-09-01T00:54:28;2.70;;;2.50;;
3677;SDS011;1855;50.934;6.958;2022-09-01T00:57:00;2.50;;;2.30;;
3677;SDS011;1855;50.934;6.958;2022-09-01T00:59:32;2.80;;;2.13;;
3677;SDS011;1855;50.934;6.958;2022-09-01T01:02:00;3.90;;;2.22;;
3677;SDS011;1855;50.934;6.958;2022-09-01T01:04:27;2.47;;;2.10;;
3677;SDS011;1855;50.934;6.958;2022-09-01T01:06:56;2.80;;;2.30;;
3677;SDS011;1855;50.934;6.958;2022-09-01T01:09:29;4.40;;;2.40;;
3677;SDS011;1855;50.934;6.958;2022-09-01T01:12:02;2.20;;;2.00;;
3677;SDS011;1855;50.934;6.958;2022-09-01T01:14:30;2.20;;;2.00;;
3677;SDS011;1855;50.934;6.958;2022-09-01T01:17:00;2.60;;;2.30;;
3677;SDS011;1855;50.934;6.958;2022-09-01T01:19:31;2.58;;;2.38;;
3677;SDS011;1855;50.934;6.958;2022-09-01T01:22:26;2.50;;;2.30;;
3677;SDS011;1855;50.934;6.958;2022-09-01T01:25:19;3.85;;;2.40;;
3677;SDS011;1855;50.934;6.958;2022-09-01T01:27:47;2.50;;;2.30;;
3677;SDS011;1855;50.934;6.958;2022-09-01T01:30:14;2.67;;;2.30;;
3677;SDS011;1855;50.934;6.958;2022-09-01T01:32:43;2.13;;;2.03;;
3677;SDS011;1855;50.934;6.958;2022-09-01T01:35:12;2.40;;;2.20;;
3677;SDS011;1855;50.934;6.958;2022-09-01T01:37:40;2.50;;;2.30;;
3677;SDS011;1855;50.934;6.958;2022-09-01T01:40:10;2.53;;;2.30;;
3677;SDS011;1855;50.934;6.958;2022-09-01T01:42:41;2.65;;;2.30;;
3677;SDS011;1855;50.934;6.958;2022-09-01T01:45:10;2.30;;;2.10;;
3677;SDS011;1855;50.934;6.958;2022-09-01T01:47:41;2.25;;;2.00;;
3677;SDS011;1855;50.934;6.958;2022-09-01T01:50:10;2.40;;;2.20;;
3677;SDS011;1855;50.934;6.958;2022-09-01T01:52:39;2.53;;;2.33;;
3677;SDS011;1855;50.934;6.958;2022-09-01T01:55:07;2.50;;;2.30;;
3677;SDS011;1855;50.934;6.958;2022-09-01T01:57:36;2.30;;;2.10;;
3677;SDS011;1855;50.934;6.958;2022-09-01T02:00:08;3.25;;;2.30;;
3677;SDS011;1855;50.934;6.958;2022-09-01T02:02:36;2.25;;;2.05;;
3677;SDS011;1855;50.934;6.958;2022-09-01T02:05:04;2.30;;;2.10;;
3677;SDS011;1855;50.934;6.958;2022-09-01T02:07:31;2.50;;;2.30;;
3677;SDS011;1855;50.934;6.958;2022-09-01T02:09:58;2.78;;;2.53;;
3677;SDS011;1855;50.934;6.958;2022-09-01T02:12:25;2.63;;;1.98;;
3677;SDS011;1855;50.934;6.958;2022-09-01T02:14:52;3.38;;;2.33;;
3677;SDS011;1855;50.934;6.958;2022-09-01T02:17:22;2.90;;;2.70;;
3677;SDS011;1855;50.934;6.958;2022-09-01T02:19:51;2.88;;;2.35;;
3677;SDS011;1855;50.934;6.958;2022-09-01T02:22:21;2.40;;;2.20;;
3677;SDS011;1855;50.934;6.958;2022-09-01T02:24:48;2.92;;;2.20;;
3677;SDS011;1855;50.934;6.958;2022-09-01T02:27:16;3.60;;;2.30;;
3677;SDS011;1855;50.934;6.958;2022-09-01T02:29:50;3.72;;;2.20;;
3677;SDS011;1855;50.934;6.958;2022-09-01T02:32:18;2.50;;;2.30;;
3677;SDS011;1855;50.934;6.958;2022-09-01T02:34:47;4.25;;;2.50;;
3677;SDS011;1855;50.934;6.958;2022-09-01T02:37:18;2.35;;;2.10;;
3677;SDS011;1855;50.934;6.958;2022-09-01T02:39:49;2.50;;;2.30;;
3677;SDS011;1855;50.934;6.958;2022-09-01T02:42:20;3.80;;;2.20;;
3677;SDS011;1855;50.934;6.958;2022-09-01T02:44:51;2.35;;;2.15;;
3677;SDS011;1855;50.934;6.958;2022-09-01T02:47:19;2.50;;;2.30;;
3677;SDS011;1855;50.934;6.958;2022-09-01T02:49:48;2.42;;;2.22;;
3677;SDS011;1855;50.934;6.958;2022-09-01T02:52:15;2.50;;;2.30;;
3677;SDS011;1855;50.934;6.958;2022-09-01T02:54:44;2.28;;;2.08;;
3677;SDS011;1855;50.934;6.958;2022-09-01T02:57:12;2.47;;;2.30;;
3677;SDS011;1855;50.934;6.958;2022-09-01T02:59:40;2.20;;;2.00;;
3677;SDS011;1855;50.934;6.958;2022-09-01T03:02:07;3.22;;;2.10;;
3677;SDS011;1855;50.934;6.958;2022-09-01T03:04:35;2.40;;;2.20;;
3677;SDS011;1855;50.934;6.958;2022-09-01T03:07:04;2.10;;;1.90;;
3677;SDS011;1855;50.934;6.958;2022-09-01T03:09:32;3.05;;;2.00;;
3677;SDS011;1855;50.934;6.958;2022-09-01T03:12:01;2.67;;;2.10;;
3677;SDS011;1855;50.934;6.958;2022-09-01T03:14:31;2.00;;;1.80;;
3677;SDS011;1855;50.934;6.958;2022-09-01T03:16:58;3.80;;;2.08;;
3677;SDS011;1855;50.934;6.958;2022-09-01T03:19:25;3.33;;;1.90;;
3677;SDS011;1855;50.934;6.958;2022-09-01T03:22:01;2.20;;;2.00;;
3677;SDS011;1855;50.934;6.958;2022-09-01T03:24:29;3.37;;;2.50;;
3677;SDS011;1855;50.934;6.958;2022-09-01T03:26:56;2.50;;;2.30;;
3677;SDS011;1855;50.934;6.958;2022-09-01T03:29:25;3.30;;;2.00;;
3677;SDS011;1855;50.934;6.958;2022-09-01T03:31:51;2.73;;;2.20;;
3677;SDS011;1855;50.934;6.958;2022-09-01T03:34:18;3.10;;;2.38;;
3677;SDS011;1855;50.934;6.958;2022-09-01T03:36:47;2.72;;;2.20;;
3677;SDS011;1855;50.934;6.958;2022-09-01T03:39:15;2.40;;;1.90;;
3677;SDS011;1855;50.934;6.958;2022-09-01T03:41:43;2.47;;;1.70;;
3677;SDS011;1855;50.934;6.958;2022-09-01T03:44:10;2.20;;;2.00;;
3677;SDS011;1855;50.934;6.958;2022-09-01T03:46:40;2.10;;;1.90;;
3677;SDS011;1855;50.934;6.958;2022-09-01T03:49:08;2.40;;;2.00;;
3677;SDS011;1855;50.934;6.958;2022-09-01T03:51:39;3.53;;;2.00;;
3677;SDS011;1855;50.934;6.958;2022-09-01T03:54:08;3.83;;;2.20;;
3677;SDS011;1855;50.934;6.958;2022-09-01T03:56:35;3.15;;;2.15;;
3677;SDS011;1855;50.934;6.958;2022-09-01T03:59:07;2.10;;;2.00;;
3677;SDS011;1855;50.934;6.958;2022-09-01T04:01:40;2.63;;;2.20;;
3677;SDS011;1855;50.934;6.958;2022-09-01T04:04:09;2.67;;;2.10;;
3677;SDS011;1855;50.934;6.958;2022-09-01T04:06:38;2.13;;;2.00;;
3677;SDS011;1855;50.934;6.958;2022-09-01T04:09:05;3.58;;;2.13;;
3677;SDS011;1855;50.934;6.958;2022-09-01T04:11:32;3.20;;;2.20;;
3677;SDS011;1855;50.934;6.958;2022-09-01T04:14:00;3.13;;;2.00;;
3677;SDS011;1855;50.934;6.958;2022-09-01T04:16:29;2.40;;;2.20;;
3677;SDS011;1855;50.934;6.958;2022-09-01T04:19:16;3.10;;;2.00;;
3677;SDS011;1855;50.934;6.958;2022-09-01T04:21:51;2.90;;;2.30;;
3677;SDS011;1855;50.934;6.958;2022-09-01T04:24:20;2.97;;;2.22;;
3677;SDS011;1855;50.934;6.958;2022-09-01T04:26:48;2.80;;;2.20;;
3677;SDS011;1855;50.934;6.958;2022-09-01T04:29:16;2.47;;;2.28;;
3677;SDS011;1855;50.934;6.958;2022-09-01T04:31:45;2.30;;;1.60;;
3677;SDS011;1855;50.934;6.958;2022-09-01T04:34:17;3.38;;;2.30;;
3677;SDS011;1855;50.934;6.958;2022-09-01T04:36:44;2.40;;;2.10;;
3677;SDS011;1855;50.934;6.958;2022-09-01T04:39:12;3.70;;;2.30;;
3677;SDS011;1855;50.934;6.958;2022-09-01T04:41:41;2.38;;;2.17;;
3677;SDS011;1855;50.934;6.958;2022-09-01T04:44:10;2.20;;;2.00;;
3677;SDS011;1855;50.934;6.958;2022-09-01T04:46:41;2.92;;;1.90;;
3677;SDS011;1855;50.934;6.958;2022-09-01T04:49:12;2.88;;;1.95;;
3677;SDS011;1855;50.934;6.958;2022-09-01T04:51:44;2.50;;;2.30;;
3677;SDS011;1855;50.934;6.958;2022-09-01T04:54:13;3.70;;;2.47;;
3677;SDS011;1855;50.934;6.958;2022-09-01T04:56:40;2.83;;;2.20;;
3677;SDS011;1855;50.934;6.958;2022-09-01T04:59:09;3.33;;;2.00;;
3677;SDS011;1855;50.934;6.958;2022-09-01T05:01:37;2.40;;;1.90;;
3677;SDS011;1855;50.934;6.958;2022-09-01T05:04:09;3.75;;;1.85;;
3677;SDS011;1855;50.934;6.958;2022-09-01T05:06:41;2.10;;;1.90;;
3677;SDS011;1855;50.934;6.958;2022-09-01T05:09:11;2.37;;;2.10;;
3677;SDS011;1855;50.934;6.958;2022-09-01T05:11:38;6.30;;;3.00;;
3677;SDS011;1855;50.934;6.958;2022-09-01T05:14:09;2.55;;;2.35;;
3677;SDS011;1855;50.934;6.958;2022-09-01T05:16:37;4.63;;;2.20;;
3677;SDS011;1855;50.934;6.958;2022-09-01T05:19:05;3.40;;;2.43;;
3677;SDS011;1855;50.934;6.958;2022-09-01T05:21:36;3.70;;;2.45;;
3677;SDS011;1855;50.934;6.958;2022-09-01T05:24:04;2.60;;;2.40;;
3677;SDS011;1855;50.934;6.958;2022-09-01T05:26:31;4.17;;;2.20;;
3677;SDS011;1855;50.934;6.958;2022-09-01T05:28:59;3.50;;;2.10;;
3677;SDS011;1855;50.934;6.958;2022-09-01T05:31:28;2.50;;;2.20;;
3677;SDS011;1855;50.934;6.958;2022-09-01T05:33:58;3.30;;;2.40;;
3677;SDS011;1855;50.934;6.958;2022-09-01T05:36:26;4.20;;;2.10;;
3677;SDS011;1855;50.934;6.958;2022-09-01T05:38:59;2.22;;;2.00;;
3677;SDS011;1855;50.934;6.958;2022-09-01T05:41:26;2.55;;;2.10;;
3677;SDS011;1855;50.934;6.958;2022-09-01T05:43:54;4.35;;;2.65;;
3677;SDS011;1855;50.934;6.958;2022-09-01T05:46:22;2.83;;;2.00;;
3677;SDS011;1855;50.934;6.958;2022-09-01T05:48:53;3.53;;;2.28;;
3677;SDS011;1855;50.934;6.958;2022-09-01T05:51:21;4.30;;;2.17;;
3677;SDS011;1855;50.934;6.958;2022-09-01T05:53:50;2.00;;;1.90;;
3677;SDS011;1855;50.934;6.958;2022-09-01T05:56:21;3.28;;;2.20;;
3677;SDS011;1855;50.934;6.958;2022-09-01T05:58:48;2.25;;;1.92;;
3677;SDS011;1855;50.934;6.958;2022-09-01T06:01:17;3.40;;;2.10;;
3677;SDS011;1855;50.934;6.958;2022-09-01T06:03:46;2.33;;;1.80;;
3677;SDS011;1855;50.934;6.958;2022-09-01T06:06:16;3.78;;;2.17;;
3677;SDS011;1855;50.934;6.958;2022-09-01T06:08:43;3.53;;;2.30;;
3677;SDS011;1855;50.934;6.958;2022-09-01T06:11:13;2.03;;;1.83;;
3677;SDS011;1855;50.934;6.958;2022-09-01T06:13:42;4.50;;;1.98;;
3677;SDS011;1855;50.934;6.958;2022-09-01T06:16:11;4.10;;;1.80;;
3677;SDS011;1855;50.934;6.958;2022-09-01T06:18:39;3.60;;;2.50;;
3677;SDS011;1855;50.934;6.958;2022-09-01T06:21:07;6.20;;;4.70;;
3677;SDS011;1855;50.934;6.958;2022-09-01T06:23:36;2.80;;;1.77;;
3677;SDS011;1855;50.934;6.958;2022-09-01T06:26:02;3.63;;;2.10;;
3677;SDS011;1855;50.934;6.958;2022-09-01T06:28:30;2.20;;;1.70;;
3677;SDS011;1855;50.934;6.958;2022-09-01T06:30:58;1.85;;;1.63;;
3677;SDS011;1855;50.934;6.958;2022-09-01T06:33:25;1.63;;;1.52;;
3677;SDS011;1855;50.934;6.958;2022-09-01T06:35:51;2.47;;;1.42;;
3677;SDS011;1855;50.934;6.958;2022-09-01T06:38:20;2.72;;;1.60;;
3677;SDS011;1855;50.934;6.958;2022-09-01T06:40:47;3.00;;;1.33;;
3677;SDS011;1855;50.934;6.958;2022-09-01T06:43:14;3.20;;;1.45;;
3677;SDS011;1855;50.934;6.958;2022-09-01T06:45:42;3.05;;;1.70;;
3677;SDS011;1855;50.934;6.958;2022-09-01T06:48:15;2.53;;;1.70;;
3677;SDS011;1855;50.934;6.958;2022-09-01T06:50:42;2.53;;;1.77;;
3677;SDS011;1855;50.934;6.958;2022-09-01T06:53:10;2.53;;;1.60;;
3677;SDS011;1855;50.934;6.958;2022-09-01T06:55:40;3.15;;;1.40;;
3677;SDS011;1855;50.934;6.958;2022-09-01T06:58:08;2.00;;;1.10;;
3677;SDS011;1855;50.934;6.958;2022-09-01T07:00:39;2.73;;;1.40;;
3677;SDS011;1855;50.934;6.958;2022-09-01T07:03:07;2.42;;;1.60;;
3677;SDS011;1855;50.934;6.958;2022-09-01T07:05:38;2.10;;;1.40;;
3677;SDS011;1855;50.934;6.958;2022-09-01T07:08:06;1.63;;;1.30;;
3677;SDS011;1855;50.934;6.958;2022-09-01T07:10:38;2.85;;;1.30;;
3677;SDS011;1855;50.934;6.958;2022-09-01T07:13:10;2.13;;;1.42;;
3677;SDS011;1855;50.934;6.958;2022-09-01T07:15:46;1.60;;;1.40;;
3677;SDS011;1855;50.934;6.958;2022-09-01T07:18:14;2.70;;;1.40;;
3677;SDS011;1855;50.934;6.958;2022-09-01T07:20:43;2.47;;;1.48;;
3677;SDS011;1855;50.934;6.958;2022-09-01T07:23:13;2.60;;;1.73;;
3677;SDS011;1855;50.934;6.958;2022-09-01T07:25:41;3.45;;;1.55;;
3677;SDS011;1855;50.934;6.958;2022-09-01T07:28:10;3.00;;;1.70;;
3677;SDS011;1855;50.934;6.958;2022-09-01T07:30:39;2.90;;;1.42;;
3677;SDS011;1855;50.934;6.958;2022-09-01T07:33:07;1.35;;;1.20;;
3677;SDS011;1855;50.934;6.958;2022-09-01T07:35:36;2.85;;;1.50;;
3677;SDS011;1855;50.934;6.958;2022-09-01T07:38:04;2.80;;;1.42;;
3677;SDS011;1855;50.934;6.958;2022-09-01T07:40:34;4.50;;;1.60;;
3677;SDS011;1855;50.934;6.958;2022-09-01T07:43:03;2.72;;;1.70;;
3677;SDS011;1855;50.934;6.958;2022-09-01T07:45:32;2.97;;;1.30;;
3677;SDS011;1855;50.934;6.958;2022-09-01T07:48:02;2.30;;;1.50;;
3677;SDS011;1855;50.934;6.958;2022-09-01T07:50:31;2.45;;;1.40;;
3677;SDS011;1855;50.934;6.958;2022-09-01T07:52:59;2.90;;;1.23;;
3677;SDS011;1855;50.934;6.958;2022-09-01T07:55:28;4.10;;;1.60;;
3677;SDS011;1855;50.934;6.958;2022-09-01T07:57:56;1.95;;;1.50;;
3677;SDS011;1855;50.934;6.958;2022-09-01T08:00:23;2.50;;;1.60;;
3677;SDS011;1855;50.934;6.958;2022-09-01T08:02:52;3.80;;;1.70;;
3677;SDS011;1855;50.934;6.958;2022-09-01T08:05:19;2.10;;;1.60;;
3677;SDS011;1855;50.934;6.958;2022-09-01T08:07:50;2.88;;;1.58;;
3677;SDS011;1855;50.934;6.958;2022-09-01T08:10:17;6.37;;;1.87;;
3677;SDS011;1855;50.934;6.958;2022-09-01T08:12:45;4.15;;;1.75;;
3677;SDS011;1855;50.934;6.958;2022-09-01T08:15:12;1.60;;;1.50;;
3677;SDS011;1855;50.934;6.958;2022-09-01T08:17:41;2.00;;;1.30;;
3677;SDS011;1855;50.934;6.958;2022-09-01T08:20:08;3.05;;;1.33;;
3677;SDS011;1855;50.934;6.958;2022-09-01T08:22:36;2.05;;;1.50;;
3677;SDS011;1855;50.934;6.958;2022-09-01T08:25:04;2.15;;;1.20;;
3677;SDS011;1855;50.934;6.958;2022-09-01T08:27:31;3.15;;;1.40;;
3677;SDS011;1855;50.934;6.958;2022-09-01T08:30:02;2.50;;;1.40;;
3677;SDS011;1855;50.934;6.958;2022-09-01T08:32:29;2.20;;;1.30;;
3677;SDS011;1855;50.934;6.958;2022-09-01T08:34:57;3.50;;;1.48;;
3677;SDS011;1855;50.934;6.958;2022-09-01T08:37:23;1.70;;;1.30;;
3677;SDS011;1855;50.934;6.958;2022-09-01T08:39:50;2.55;;;1.52;;
3677;SDS011;1855;50.934;6.958;2022-09-01T08:42:19;1.63;;;1.50;;
3677;SDS011;1855;50.934;6.958;2022-09-01T08:44:57;1.50;;;1.40;;
3677;SDS011;1855;50.934;6.958;2022-09-01T08:47:29;3.20;;;1.30;;
3677;SDS011;1855;50.934;6.958;2022-09-01T08:49:57;1.50;;;1.30;;
3677;SDS011;1855;50.934;6.958;2022-09-01T08:52:26;3.77;;;1.40;;
3677;SDS011;1855;50.934;6.958;2022-09-01T08:54:56;1.90;;;1.35;;
3677;SDS011;1855;50.934;6.958;2022-09-01T08:57:29;2.45;;;1.60;;
3677;SDS011;1855;50.934;6.958;2022-09-01T08:59:58;2.50;;;1.20;;
3677;SDS011;1855;50.934;6.958;2022-09-01T09:02:35;1.83;;;1.30;;
3677;SDS011;1855;50.934;6.958;2022-09-01T09:05:16;1.20;;;1.10;;
3677;SDS011;1855;50.934;6.958;2022-09-01T09:08:01;2.20;;;1.20;;
3677;SDS011;1855;50.934;6.958;2022-09-01T09:10:54;2.72;;;1.10;;
3677;SDS011;1855;50.934;6.958;2022-09-01T09:13:25;1.55;;;1.10;;
3677;SDS011;1855;50.934;6.958;2022-09-01T09:16:05;1.80;;;1.10;;
3677;SDS011;1855;50.934;6.958;2022-09-01T09:18:38;2.10;;;1.20;;
3677;SDS011;1855;50.934;6.958;2022-09-01T09:21:11;2.63;;;1.27;;
3677;SDS011;1855;50.934;6.958;2022-09-01T09:23:42;7.60;;;2.10;;
3677;SDS011;1855;50.934;6.958;2022-09-01T09:26:13;3.20;;;1.27;;
3677;SDS011;1855;50.934;6.958;2022-09-01T09:28:41;1.20;;;1.10;;
3677;SDS011;1855;50.934;6.958;2022-09-01T09:31:24;1.70;;;1.00;;
3677;SDS011;1855;50.934;6.958;2022-09-01T09:33:56;1.23;;;1.10;;
3677;SDS011;1855;50.934;6.958;2022-09-01T09:36:28;1.90;;;0.90;;
3677;SDS011;1855;50.934;6.958;2022-09-01T09:44:33;1.63;;;1.05;;
3677;SDS011;1855;50.934;6.958;2022-09-01T09:47:08;0.90;;;0.70;;
3677;SDS011;1855;50.934;6.958;2022-09-01T09:49:36;1.90;;;0.90;;
3677;SDS011;1855;50.934;6.958;2022-09-01T09:52:13;2.03;;;1.00;;
3677;SDS011;1855;50.934;6.958;2022-09-01T09:54:56;1.50;;;1.05;;
3677;SDS011;1855;50.934;6.958;2022-09-01T09:57:25;1.20;;;1.10;;
3677;SDS011;1855;50.934;6.958;2022-09-01T09:59:55;1.50;;;1.00;;
3677;SDS011;1855;50.934;6.958;2022-09-01T10:02:27;1.08;;;0.80;;
3677;SDS011;1855;50.934;6.958;2022-09-01T10:04:58;1.70;;;1.10;;
3677;SDS011;1855;50.934;6.958;2022-09-01T10:07:28;0.90;;;0.80;;
3677;SDS011;1855;50.934;6.958;2022-09-01T10:09:59;2.10;;;0.90;;
3677;SDS011;1855;50.934;6.958;2022-09-01T10:12:28;1.63;;;1.00;;
3677;SDS011;1855;50.934;6.958;2022-09-01T10:14:57;1.15;;;0.90;;
3677;SDS011;1855;50.934;6.958;2022-09-01T10:17:28;2.22;;;1.00;;
3677;SDS011;1855;50.934;6.958;2022-09-01T10:20:00;0.90;;;0.70;;
3677;SDS011;1855;50.934;6.958;2022-09-01T10:22:30;1.80;;;0.98;;
3677;SDS011;1855;50.934;6.958;2022-09-01T10:24:58;0.85;;;0.80;;
3677;SDS011;1855;50.934;6.958;2022-09-01T10:27:26;1.80;;;1.00;;
3677;SDS011;1855;50.934;6.958;2022-09-01T10:29:56;1.85;;;1.00;;
3677;SDS011;1855;50.934;6.958;2022-09-01T10:32:31;1.30;;;0.80;;
3677;SDS011;1855;50.934;6.958;2022-09-01T10:35:03;1.70;;;1.10;;
3677;SDS011;1855;50.934;6.958;2022-09-01T10:37:32;1.85;;;1.00;;
3677;SDS011;1855;50.934;6.958;2022-09-01T10:40:16;1.40;;;0.90;;
3677;SDS011;1855;50.934;6.958;2022-09-01T10:46:03;1.27;;;1.13;;
3677;SDS011;1855;50.934;6.958;2022-09-01T10:48:52;2.10;;;0.80;;
3677;SDS011;1855;50.934;6.958;2022-09-01T10:54:17;1.67;;;1.17;;
3677;SDS011;1855;50.934;6.958;2022-09-01T10:57:23;1.60;;;0.80;;
3677;SDS011;1855;50.934;6.958;2022-09-01T11:00:14;2.00;;;0.98;;
3677;SDS011;1855;50.934;6.958;2022-09-01T11:05:58;0.90;;;0.90;;
3677;SDS011;1855;50.934;6.958;2022-09-01T11:08:40;1.10;;;1.00;;
3677;SDS011;1855;50.934;6.958;2022-09-01T11:11:13;0.93;;;0.90;;
3677;SDS011;1855;50.934;6.958;2022-09-01T11:13:48;0.93;;;0.90;;
3677;SDS011;1855;50.934;6.958;2022-09-01T11:16:28;1.80;;;1.10;;
3677;SDS011;1855;50.934;6.958;2022-09-01T11:22:01;1.70;;;1.25;;
3677;SDS011;1855;50.934;6.958;2022-09-01T11:24:49;1.20;;;1.10;;
3677;SDS011;1855;50.934;6.958;2022-09-01T11:30:22;3.08;;;1.23;;
3677;SDS011;1855;50.934;6.958;2022-09-01T11:32:51;1.80;;;1.20;;
3677;SDS011;1855;50.934;6.958;2022-09-01T11:35:27;2.20;;;1.33;;
3677;SDS011;1855;50.934;6.958;2022-09-01T11:37:55;1.88;;;1.35;;
3677;SDS011;1855;50.934;6.958;2022-09-01T11:40:31;1.52;;;1.42;;
3677;SDS011;1855;50.934;6.958;2022-09-01T11:43:00;1.50;;;1.20;;
3677;SDS011;1855;50.934;6.958;2022-09-01T11:45:32;1.50;;;1.10;;
3677;SDS011;1855;50.934;6.958;2022-09-01T11:48:04;3.07;;;1.50;;
3677;SDS011;1855;50.934;6.958;2022-09-01T11:50:35;1.70;;;1.30;;
3677;SDS011;1855;50.934;6.958;2022-09-01T11:53:04;1.40;;;1.30;;
3677;SDS011;1855;50.934;6.958;2022-09-01T11:55:35;1.40;;;1.30;;
3677;SDS011;1855;50.934;6.958;2022-09-01T11:58:04;2.20;;;1.30;;
3677;SDS011;1855;50.934;6.958;2022-09-01T12:00:32;1.50;;;1.20;;
3677;SDS011;1855;50.934;6.958;2022-09-01T12:03:02;1.20;;;1.10;;
3677;SDS011;1855;50.934;6.958;2022-09-01T12:05:31;2.22;;;1.20;;
3677;SDS011;1855;50.934;6.958;2022-09-01T12:08:00;1.50;;;1.40;;
3677;SDS011;1855;50.934;6.958;2022-09-01T12:10:30;1.60;;;1.50;;
3677;SDS011;1855;50.934;6.958;2022-09-01T12:13:00;2.60;;;1.50;;
3677;SDS011;1855;50.934;6.958;2022-09-01T12:15:29;1.50;;;1.40;;
3677;SDS011;1855;50.934;6.958;2022-09-01T12:18:09;1.60;;;1.40;;
3677;SDS011;1855;50.934;6.958;2022-09-01T12:20:40;1.60;;;1.50;;
3677;SDS011;1855;50.934;6.958;2022-09-01T12:23:14;1.85;;;1.65;;
3677;SDS011;1855;50.934;6.958;2022-09-01T12:25:44;1.80;;;1.50;;
3677;SDS011;1855;50.934;6.958;2022-09-01T12:28:12;1.75;;;1.33;;
3677;SDS011;1855;50.934;6.958;2022-09-01T12:30:40;1.50;;;1.40;;
3677;SDS011;1855;50.934;6.958;2022-09-01T12:33:09;2.10;;;1.42;;
3677;SDS011;1855;50.934;6.958;2022-09-01T12:35:38;2.53;;;1.40;;
3677;SDS011;1855;50.934;6.958;2022-09-01T12:38:20;1.85;;;1.50;;
3677;SDS011;1855;50.934;6.958;2022-09-01T12:40:49;1.50;;;1.40;;
3677;SDS011;1855;50.934;6.958;2022-09-01T12:43:28;1.55;;;1.45;;
3677;SDS011;1855;50.934;6.958;2022-09-01T12:45:56;1.50;;;1.40;;
3677;SDS011;1855;50.934;6.958;2022-09-01T12:48:26;1.55;;;1.45;;
3677;SDS011;1855;50.934;6.958;2022-09-01T12:50:54;1.70;;;1.42;;
3677;SDS011;1855;50.934;6.958;2022-09-01T12:53:24;1.40;;;1.30;;
3677;SDS011;1855;50.934;6.958;2022-09-01T12:56:04;1.65;;;1.50;;
3677;SDS011;1855;50.934;6.958;2022-09-01T12:58:43;1.65;;;1.55;;
3677;SDS011;1855;50.934;6.958;2022-09-01T13:01:27;1.70;;;1.60;;
3677;SDS011;1855;50.934;6.958;2022-09-01T13:04:09;1.98;;;1.60;;
3677;SDS011;1855;50.934;6.958;2022-09-01T13:06:50;2.03;;;1.90;;
3677;SDS011;1855;50.934;6.958;2022-09-01T13:09:17;3.10;;;1.80;;
3677;SDS011;1855;50.934;6.958;2022-09-01T13:11:44;1.95;;;1.75;;
3677;SDS011;1855;50.934;6.958;2022-09-01T13:14:13;1.70;;;1.60;;
3677;SDS011;1855;50.934;6.958;2022-09-01T13:16:41;2.63;;;1.55;;
3677;SDS011;1855;50.934;6.958;2022-09-01T13:19:08;2.45;;;1.80;;
3677;SDS011;1855;50.934;6.958;2022-09-01T13:21:35;1.80;;;1.50;;
3677;SDS011;1855;50.934;6.958;2022-09-01T13:24:02;2.10;;;1.60;;
3677;SDS011;1855;50.934;6.958;2022-09-01T13:26:31;2.58;;;1.50;;
3677;SDS011;1855;50.934;6.958;2022-09-01T13:28:58;1.80;;;1.50;;
3677;SDS011;1855;50.934;6.958;2022-09-01T13:31:26;1.92;;;1.80;;
3677;SDS011;1855;50.934;6.958;2022-09-01T13:33:55;1.92;;;1.73;;
3677;SDS011;1855;50.934;6.958;2022-09-01T13:36:22;1.90;;;1.70;;
3677;SDS011;1855;50.934;6.958;2022-09-01T13:38:49;1.63;;;1.52;;
3677;SDS011;1855;50.934;6.958;2022-09-01T13:41:16;2.10;;;1.90;;
3677;SDS011;1855;50.934;6.958;2022-09-01T13:43:43;1.83;;;1.40;;
3677;SDS011;1855;50.934;6.958;2022-09-01T13:46:11;2.90;;;1.80;;
3677;SDS011;1855;50.934;6.958;2022-09-01T13:48:39;29.80;;;26.80;;
3677;SDS011;1855;50.934;6.958;2022-09-01T13:51:06;35.25;;;32.05;;
3677;SDS011;1855;50.934;6.958;2022-09-01T13:53:34;15.43;;;14.13;;
3677;SDS011;1855;50.934;6.958;2022-09-01T13:56:01;15.63;;;14.18;;
3677;SDS011;1855;50.934;6.958;2022-09-01T13:58:28;23.50;;;21.30;;
3677;SDS011;1855;50.934;6.958;2022-09-01T14:00:55;20.98;;;18.85;;
3677;SDS011;1855;50.934;6.958;2022-09-01T14:03:23;14.15;;;12.85;;
3677;SDS011;1855;50.934;6.958;2022-09-01T14:05:52;11.95;;;10.93;;
3677;SDS011;1855;50.934;6.958;2022-09-01T14:08:19;14.60;;;13.23;;
3677;SDS011;1855;50.934;6.958;2022-09-01T14:10:49;13.40;;;12.20;;
3677;SDS011;1855;50.934;6.958;2022-09-01T14:13:17;8.27;;;7.57;;
3677;SDS011;1855;50.934;6.958;2022-09-01T14:15:45;8.10;;;7.40;;
3677;SDS011;1855;50.934;6.958;2022-09-01T14:18:13;3.50;;;2.90;;
3677;SDS011;1855;50.934;6.958;2022-09-01T14:20:41;4.93;;;4.43;;
3677;SDS011;1855;50.934;6.958;2022-09-01T14:23:11;4.47;;;4.07;;
3677;SDS011;1855;50.934;6.958;2022-09-01T14:25:43;3.90;;;3.50;;
3677;SDS011;1855;50.934;6.958;2022-09-01T14:28:11;6.30;;;5.70;;
3677;SDS011;1855;50.934;6.958;2022-09-01T14:30:39;6.70;;;6.10;;
3677;SDS011;1855;50.934;6.958;2022-09-01T14:33:07;2.90;;;2.70;;
3677;SDS011;1855;50.934;6.958;2022-09-01T14:35:37;2.70;;;2.50;;
3677;SDS011;1855;50.934;6.958;2022-09-01T14:38:05;1.77;;;1.67;;
3677;SDS011;1855;50.934;6.958;2022-09-01T14:40:34;1.80;;;1.70;;
3677;SDS011;1855;50.934;6.958;2022-09-01T14:43:03;2.10;;;1.70;;
3677;SDS011;1855;50.934;6.958;2022-09-01T14:45:31;2.17;;;1.50;;
3677;SDS011;1855;50.934;6.958;2022-09-01T14:47:59;1.80;;;1.70;;
3677;SDS011;1855;50.934;6.958;2022-09-01T14:50:26;1.70;;;1.60;;
3677;SDS011;1855;50.934;6.958;2022-09-01T14:52:56;1.70;;;1.60;;
3677;SDS011;1855;50.934;6.958;2022-09-01T14:55:25;1.70;;;1.60;;
3677;SDS011;1855;50.934;6.958;2022-09-01T14:57:54;1.60;;;1.40;;
3677;SDS011;1855;50.934;6.958;2022-09-01T15:00:21;2.15;;;1.65;;
3677;SDS011;1855;50.934;6.958;2022-09-01T15:02:49;1.70;;;1.60;;
3677;SDS011;1855;50.934;6.958;2022-09-01T15:05:17;1.60;;;1.50;;
3677;SDS011;1855;50.934;6.958;2022-09-01T15:07:44;1.60;;;1.50;;
3677;SDS011;1855;50.934;6.958;2022-09-01T15:10:12;1.85;;;1.70;;
3677;SDS011;1855;50.934;6.958;2022-09-01T15:12:41;2.10;;;1.75;;
3677;SDS011;1855;50.934;6.958;2022-09-01T15:15:10;1.52;;;1.42;;
3677;SDS011;1855;50.934;6.958;2022-09-01T15:17:37;2.30;;;1.70;;
3677;SDS011;1855;50.934;6.958;2022-09-01T15:20:04;1.83;;;1.52;;
3677;SDS011;1855;50.934;6.958;2022-09-01T15:23:01;1.50;;;1.40;;
3677;SDS011;1855;50.934;6.958;2022-09-01T15:25:28;1.90;;;1.80;;
3677;SDS011;1855;50.934;6.958;2022-09-01T15:27:55;1.90;;;1.70;;
3677;SDS011;1855;50.934;6.958;2022-09-01T15:30:23;1.88;;;1.60;;
3677;SDS011;1855;50.934;6.958;2022-09-01T15:32:52;1.90;;;1.80;;
3677;SDS011;1855;50.934;6.958;2022-09-01T15:35:19;3.17;;;2.00;;
3677;SDS011;1855;50.934;6.958;2022-09-01T15:37:47;2.10;;;2.00;;
3677;SDS011;1855;50.934;6.958;2022-09-01T15:40:15;2.90;;;1.67;;
3677;SDS011;1855;50.934;6.958;2022-09-01T15:42:42;2.20;;;2.00;;
3677;SDS011;1855;50.934;6.958;2022-09-01T15:45:10;2.65;;;2.30;;
3677;SDS011;1855;50.934;6.958;2022-09-01T15:47:40;1.70;;;1.60;;
3677;SDS011;1855;50.934;6.958;2022-09-01T15:50:07;1.70;;;1.60;;
3677;SDS011;1855;50.934;6.958;2022-09-01T15:52:38;2.67;;;1.60;;